Time;durP1;ratioP1;P1;durP2;ratioP2;P2;SDS_P1;SDS_P2;PMS_P1;PMS_P2;Temp;Humidity;BMP_temperature;BMP_pressure;BME280_temperature;BME280_humidity;BME280_pressure;Samples;Min_cycle;Max_cycle;Signal;HPM_P1;HPM_P2
2023/11/14 00:00:26;;;;;;;19.75;8.27;;;;;;;5.93;78.54;94039.53;4891732;29;20050;-77
2023/11/14 00:02:51;;;;;;;14.60;5.93;;;;;;;5.80;78.08;94022.47;4891943;29;20346;-77
2023/11/14 00:05:17;;;;;;;16.63;6.50;;;;;;;5.73;78.13;94034.44;4891646;29;20367;-77
2023/11/14 00:07:42;;;;;;;22.00;6.57;;;;;;;5.65;78.49;94027.88;4891705;29;20029;-77
2023/11/14 00:10:08;;;;;;;15.15;6.50;;;;;;;5.61;78.83;94042.72;4891671;29;20041;-77
2023/11/14 00:12:34;;;;;;;14.27;5.75;;;;;;;5.50;79.09;94030.66;4891818;29;20025;-77
2023/11/14 00:15:00;;;;;;;14.35;7.07;;;;;;;5.46;79.48;94029.66;4891466;29;20025;-77
2023/11/14 00:17:25;;;;;;;23.27;6.32;;;;;;;5.49;79.51;94043.06;4891656;29;20021;-77
2023/11/14 00:19:51;;;;;;;15.52;5.85;;;;;;;5.51;79.73;94032.22;4891772;29;20319;-77
2023/11/14 00:22:16;;;;;;;18.80;6.45;;;;;;;5.53;79.95;94036.16;4891456;29;20028;-79
2023/11/14 00:24:42;;;;;;;16.58;7.25;;;;;;;5.56;79.62;94030.34;4890523;29;20043;-79
2023/11/14 00:27:07;;;;;;;10.50;5.45;;;;;;;5.56;79.68;94040.91;4891776;29;20322;-79
2023/11/14 00:29:32;;;;;;;18.67;6.10;;;;;;;5.57;79.31;94041.69;4890204;29;20021;-77
2023/11/14 00:31:59;;;;;;;12.02;6.20;;;;;;;5.58;79.15;94033.50;4891231;29;20102;-77
2023/11/14 00:34:24;;;;;;;14.70;7.10;;;;;;;5.59;79.46;94036.94;4890098;29;20021;-77
2023/11/14 00:36:50;;;;;;;14.02;6.50;;;;;;;5.62;79.48;94046.97;4891293;29;20041;-77
2023/11/14 00:39:18;;;;;;;14.02;5.97;;;;;;;5.61;79.17;94048.00;4891195;29;20025;-77
2023/11/14 00:41:44;;;;;;;18.13;8.05;;;;;;;5.61;79.33;94045.38;4891174;29;20025;-77
2023/11/14 00:44:10;;;;;;;17.80;7.85;;;;;;;5.54;79.56;94040.41;4890789;29;20045;-77
2023/11/14 00:46:36;;;;;;;13.40;6.72;;;;;;;5.54;79.55;94034.34;4891257;29;20021;-77
2023/11/14 00:49:01;;;;;;;17.15;7.20;;;;;;;5.54;79.43;94026.41;4891055;29;20028;-78
2023/11/14 00:51:26;;;;;;;18.45;7.30;;;;;;;5.51;79.47;94037.53;4890934;29;20052;-77
2023/11/14 00:53:52;;;;;;;15.55;7.32;;;;;;;5.53;79.40;94038.81;4890488;29;20353;-77
2023/11/14 00:56:17;;;;;;;20.02;6.88;;;;;;;5.54;79.36;94031.69;4889583;29;20028;-78
2023/11/14 00:58:44;;;;;;;13.77;6.40;;;;;;;5.55;79.11;94039.31;4890757;29;20379;-78
2023/11/14 01:01:09;;;;;;;13.15;6.93;;;;;;;5.56;79.10;94040.13;4889458;29;20121;-78
2023/11/14 01:03:35;;;;;;;14.63;6.38;;;;;;;5.55;79.10;94034.03;4890936;29;20361;-78
2023/11/14 01:06:01;;;;;;;16.35;7.15;;;;;;;5.54;78.88;94042.28;4890516;29;20315;-78
2023/11/14 01:08:26;;;;;;;17.45;7.40;;;;;;;5.54;79.20;94052.84;4890477;29;20025;-78
2023/11/14 01:10:52;;;;;;;15.70;7.28;;;;;;;5.55;79.12;94039.31;4889347;29;20052;-78
2023/11/14 01:13:18;;;;;;;16.52;8.02;;;;;;;5.55;79.40;94041.19;4889391;29;20032;-78
2023/11/14 01:15:44;;;;;;;16.08;8.18;;;;;;;5.56;79.38;94046.22;4890396;29;20029;-78
2023/11/14 01:18:10;;;;;;;14.77;7.30;;;;;;;5.59;79.15;94039.56;4890304;29;20033;-78
2023/11/14 01:20:36;;;;;;;13.65;7.15;;;;;;;5.59;79.16;94039.56;4890596;29;20108;-79
2023/11/14 01:23:01;;;;;;;13.95;7.38;;;;;;;5.56;79.27;94040.13;4889140;29;20020;-78
2023/11/14 01:25:26;;;;;;;20.75;6.50;;;;;;;5.54;79.47;94026.41;4890426;29;20025;-79
2023/11/14 01:27:52;;;;;;;18.13;7.85;;;;;;;5.53;79.53;94024.81;4890207;29;20086;-78
2023/11/14 01:30:17;;;;;;;15.48;6.88;;;;;;;5.52;79.56;94004.75;4890185;29;20021;-78
2023/11/14 01:32:43;;;;;;;17.50;7.80;;;;;;;5.51;79.48;94006.56;4890121;29;20227;-78
2023/11/14 01:35:09;;;;;;;18.27;7.28;;;;;;;5.52;79.58;93999.44;4890245;29;20052;-78
2023/11/14 01:37:34;;;;;;;15.23;6.65;;;;;;;5.50;79.49;93998.94;4889213;29;20382;-78
2023/11/14 01:40:00;;;;;;;17.52;6.88;;;;;;;5.48;79.52;93990.50;4890126;29;20028;-78
2023/11/14 01:42:26;;;;;;;13.73;6.63;;;;;;;5.40;80.08;94000.59;4889826;29;20040;-78
2023/11/14 01:44:51;;;;;;;21.55;8.02;;;;;;;5.39;80.05;93992.94;4889962;29;20043;-78
2023/11/14 01:47:17;;;;;;;17.40;7.68;;;;;;;5.47;80.06;94004.78;4889837;29;20053;-78
2023/11/14 01:49:45;;;;;;;15.15;6.90;;;;;;;5.46;79.95;93997.91;4889741;29;20028;-78
2023/11/14 01:52:10;;;;;;;17.92;6.93;;;;;;;5.39;80.20;93988.47;4889889;29;20029;-78
2023/11/14 01:54:37;;;;;;;15.35;6.93;;;;;;;5.42;79.88;94002.97;4889580;29;20052;-78
2023/11/14 01:57:04;;;;;;;14.10;6.20;;;;;;;5.40;79.96;93995.31;4889744;29;20061;-78
2023/11/14 01:59:30;;;;;;;13.15;5.85;;;;;;;5.41;80.01;93986.31;4888523;29;20116;-78
2023/11/14 02:01:57;;;;;;;12.27;5.57;;;;;;;5.45;80.16;93985.75;4889662;29;20318;-78
2023/11/14 02:04:25;;;;;;;19.15;7.18;;;;;;;5.48;79.85;93990.50;4889436;29;20096;-78
2023/11/14 02:06:51;;;;;;;18.13;5.90;;;;;;;5.50;79.56;94004.22;4889268;29;20047;-77
2023/11/14 02:09:17;;;;;;;11.18;5.55;;;;;;;5.47;79.76;94004.78;4889611;29;20053;-77
2023/11/14 02:11:44;;;;;;;16.08;6.03;;;;;;;5.50;79.74;93998.94;4889387;29;20100;-77
2023/11/14 02:14:11;;;;;;;14.15;5.50;;;;;;;5.48;80.18;93996.56;4889349;29;20105;-77
2023/11/14 02:16:46;;;;;;;14.18;5.53;;;;;;;5.53;79.90;94001.03;4889530;29;20286;-77
2023/11/14 02:19:13;;;;;;;18.02;5.63;;;;;;;5.55;79.85;93977.72;4889273;29;20029;-77
2023/11/14 02:21:38;;;;;;;16.63;5.70;;;;;;;5.52;79.81;93986.25;4888149;29;20048;-77
2023/11/14 02:24:07;;;;;;;15.15;6.40;;;;;;;5.53;79.68;93998.38;4889282;29;20096;-77
2023/11/14 02:26:33;;;;;;;11.85;5.80;;;;;;;5.48;79.69;93969.34;4889232;29;20086;-78
2023/11/14 02:28:59;;;;;;;13.85;6.50;;;;;;;5.51;79.47;93971.44;4889127;29;20037;-78
2023/11/14 02:31:25;;;;;;;14.05;5.63;;;;;;;5.47;79.53;93979.13;4889207;29;20260;-78
2023/11/14 02:33:51;;;;;;;18.58;6.22;;;;;;;5.48;79.57;93980.72;4889281;29;20059;-78
2023/11/14 02:36:17;;;;;;;15.65;6.72;;;;;;;5.45;79.53;93986.53;4888936;29;20035;-77
2023/11/14 02:38:42;;;;;;;12.48;5.65;;;;;;;5.40;79.46;93992.66;4889055;29;20025;-78
2023/11/14 02:41:07;;;;;;;12.13;5.55;;;;;;;5.41;79.84;93996.09;4889260;29;20025;-78
2023/11/14 02:43:33;;;;;;;13.82;4.90;;;;;;;5.37;80.14;93995.06;4889170;29;20021;-78
2023/11/14 02:45:58;;;;;;;10.30;4.90;;;;;;;5.42;80.22;94003.75;4887701;29;20028;-78
2023/11/14 02:48:24;;;;;;;8.50;4.60;;;;;;;5.46;80.15;94013.78;4887801;29;20028;-78
2023/11/14 02:50:55;;;;;;;8.43;4.57;;;;;;;5.43;80.09;94007.97;4888910;29;20028;-78
2023/11/14 02:53:21;;;;;;;8.43;3.53;;;;;;;5.47;80.39;94016.13;4888837;29;20055;-78
2023/11/14 02:55:47;;;;;;;10.25;4.15;;;;;;;5.48;80.71;94016.94;4887708;29;20029;-78
2023/11/14 02:58:13;;;;;;;13.57;3.55;;;;;;;5.49;80.64;94010.56;4888867;29;20064;-78
2023/11/14 03:00:42;;;;;;;8.02;3.45;;;;;;;5.48;80.65;94014.28;4889079;29;20024;-78
2023/11/14 03:03:12;;;;;;;11.15;3.20;;;;;;;5.44;80.74;94006.13;4889001;29;20068;-78
2023/11/14 03:05:38;;;;;;;8.45;3.55;;;;;;;5.48;80.70;94012.44;4889427;29;20192;-78
2023/11/14 03:08:03;;;;;;;10.98;3.85;;;;;;;5.48;80.62;94009.00;4887859;29;20032;-78
2023/11/14 03:10:32;;;;;;;10.43;4.07;;;;;;;5.50;80.64;94010.31;4888279;29;20024;-78
2023/11/14 03:12:58;;;;;;;7.38;3.55;;;;;;;5.50;80.53;94010.31;4887373;29;20031;-78
2023/11/14 03:15:24;;;;;;;11.32;4.32;;;;;;;5.51;80.39;94011.09;4888556;29;20028;-78
2023/11/14 03:17:49;;;;;;;11.45;4.50;;;;;;;5.54;80.26;94015.84;4888593;29;20020;-78
2023/11/14 03:20:15;;;;;;;12.65;4.30;;;;;;;5.51;80.24;94021.66;4892438;29;20284;-78
2023/11/14 03:22:41;;;;;;;8.43;3.53;;;;;;;5.48;80.10;94022.22;4892838;29;20021;-78
2023/11/14 03:25:06;;;;;;;11.23;4.10;;;;;;;5.47;80.20;94023.28;4892786;29;20020;-78
2023/11/14 03:27:32;;;;;;;11.75;4.05;;;;;;;5.47;80.16;94025.91;4891625;29;20041;-78
2023/11/14 03:29:59;;;;;;;14.85;4.88;;;;;;;5.48;80.09;94019.59;4892777;29;20248;-78
2023/11/14 03:32:24;;;;;;;13.45;4.38;;;;;;;5.46;80.24;94032.28;4892322;29;20100;-78
2023/11/14 03:34:50;;;;;;;10.73;4.47;;;;;;;5.46;80.26;94032.28;4892434;29;20056;-78
2023/11/14 03:37:15;;;;;;;10.00;3.65;;;;;;;5.46;80.39;94034.94;4892390;29;20027;-78
2023/11/14 03:39:41;;;;;;;9.15;3.63;;;;;;;5.47;80.63;94023.28;4892425;29;20096;-78
2023/11/14 03:42:07;;;;;;;8.63;3.45;;;;;;;5.47;80.60;94029.34;4892409;29;20096;-78
2023/11/14 03:44:32;;;;;;;7.93;4.22;;;;;;;5.46;80.58;94032.28;4891048;29;20032;-77
2023/11/14 03:46:58;;;;;;;12.18;4.03;;;;;;;5.46;80.52;94034.94;4892179;29;20032;-77
2023/11/14 03:49:23;;;;;;;8.75;3.53;;;;;;;5.41;80.88;94023.34;4891883;29;20200;-77
2023/11/14 03:51:49;;;;;;;9.48;3.88;;;;;;;5.41;80.68;94033.91;4892093;29;20084;-77
2023/11/14 03:54:14;;;;;;;10.93;3.65;;;;;;;5.41;80.70;94023.34;4891943;29;20044;-77
2023/11/14 03:56:40;;;;;;;6.78;3.20;;;;;;;5.37;80.70;94017.03;4892083;29;20325;-77
2023/11/14 03:59:05;;;;;;;6.43;3.10;;;;;;;5.38;80.55;94013.28;4892032;29;20350;-77
2023/11/14 04:01:31;;;;;;;11.82;3.58;;;;;;;5.35;81.01;94019.16;4890636;29;20108;-77
2023/11/14 04:03:56;;;;;;;10.63;4.10;;;;;;;5.34;81.24;94022.06;4891872;29;20040;-77
2023/11/14 04:06:21;;;;;;;10.38;4.32;;;;;;;5.35;81.50;94013.06;4891745;29;20016;-77
2023/11/14 04:08:47;;;;;;;7.97;4.00;;;;;;;5.38;81.39;94018.59;4891735;29;20029;-77
2023/11/14 04:11:13;;;;;;;7.65;3.20;;;;;;;5.37;81.48;94027.59;4891735;29;20073;-78
2023/11/14 04:13:39;;;;;;;9.65;3.60;;;;;;;5.37;81.42;94022.31;4891650;29;20037;-78
2023/11/14 04:16:05;;;;;;;10.45;4.05;;;;;;;5.36;81.39;94030.50;4891611;29;20021;-77
2023/11/14 04:18:30;;;;;;;9.00;3.58;;;;;;;5.34;81.66;94032.63;4891728;29;20226;-77
2023/11/14 04:20:58;;;;;;;9.07;3.35;;;;;;;5.29;81.88;94030.81;4891477;29;20056;-77
2023/11/14 04:23:24;;;;;;;8.68;4.95;;;;;;;5.30;82.17;94016.53;4891545;29;20028;-77
2023/11/14 04:25:49;;;;;;;9.50;3.92;;;;;;;5.30;82.26;94005.97;4891354;29;20100;-77
2023/11/14 04:28:14;;;;;;;8.68;3.75;;;;;;;5.33;82.35;93999.31;4891512;29;20033;-77
2023/11/14 04:30:40;;;;;;;9.48;3.58;;;;;;;5.33;82.15;94005.41;4890974;29;20230;-78
2023/11/14 04:33:05;;;;;;;12.98;3.15;;;;;;;5.30;82.21;94010.47;4891486;29;20036;-78
2023/11/14 04:35:31;;;;;;;9.82;3.20;;;;;;;5.32;82.03;94000.41;4891039;29;20027;-78
2023/11/14 04:37:56;;;;;;;8.75;3.20;;;;;;;5.31;82.04;94004.91;4891140;29;20100;-78
2023/11/14 04:40:24;;;;;;;9.20;3.42;;;;;;;5.31;81.84;94012.84;4891189;29;20037;-78
2023/11/14 04:42:50;;;;;;;6.35;3.35;;;;;;;5.31;81.84;94012.84;4890222;29;20223;-78
2023/11/14 04:45:16;;;;;;;10.13;3.75;;;;;;;5.29;81.99;94007.03;4891028;29;20017;-78
2023/11/14 04:47:42;;;;;;;16.52;3.92;;;;;;;5.28;82.42;94007.31;4890987;29;20022;-79
2023/11/14 04:50:07;;;;;;;12.68;3.80;;;;;;;5.29;82.63;94014.97;4889913;29;20043;-79
2023/11/14 04:52:34;;;;;;;9.25;4.30;;;;;;;5.31;82.62;94018.13;4890792;29;20036;-78
2023/11/14 04:55:00;;;;;;;9.65;3.90;;;;;;;5.32;82.62;94019.69;4890802;29;20243;-78
2023/11/14 04:57:26;;;;;;;9.60;4.38;;;;;;;5.31;82.89;94022.59;4889676;29;20078;-78
2023/11/14 04:59:51;;;;;;;10.68;4.18;;;;;;;5.33;82.78;94023.91;4890827;29;20103;-78
2023/11/14 05:02:17;;;;;;;10.75;4.57;;;;;;;5.32;82.89;94024.97;4890841;29;20061;-79
2023/11/14 05:04:43;;;;;;;12.68;5.03;;;;;;;5.32;83.03;94035.53;4890743;29;20036;-78
2023/11/14 05:07:10;;;;;;;15.73;5.13;;;;;;;5.34;82.98;94033.41;4890714;29;20316;-78
2023/11/14 05:09:35;;;;;;;10.38;4.57;;;;;;;5.35;82.96;94040.28;4889610;29;20319;-79
2023/11/14 05:12:01;;;;;;;13.25;4.80;;;;;;;5.37;82.81;94043.44;4890535;29;20028;-79
2023/11/14 05:14:26;;;;;;;9.68;4.78;;;;;;;5.37;82.60;94045.28;4890469;29;20029;-78
2023/11/14 05:16:56;;;;;;;12.23;5.20;;;;;;;5.38;82.25;94054.81;4890620;29;20037;-77
2023/11/14 05:19:24;;;;;;;11.52;5.35;;;;;;;5.33;82.26;94052.19;4889227;29;20338;-78
2023/11/14 05:21:50;;;;;;;14.32;5.75;;;;;;;5.35;82.47;94048.22;4890646;29;20035;-78
2023/11/14 05:24:16;;;;;;;14.85;5.05;;;;;;;5.39;82.51;94049.25;4889449;29;20374;-78
2023/11/14 05:26:42;;;;;;;13.73;5.70;;;;;;;5.42;82.48;94050.53;4890494;29;20027;-78
2023/11/14 05:29:07;;;;;;;12.63;5.22;;;;;;;5.41;82.68;94049.75;4890428;29;20044;-79
2023/11/14 05:31:33;;;;;;;9.73;5.85;;;;;;;5.43;82.87;94042.34;4890387;29;20024;-78
2023/11/14 05:33:59;;;;;;;14.35;5.57;;;;;;;5.45;82.87;94051.84;4890138;29;20056;-78
2023/11/14 05:36:24;;;;;;;12.77;6.00;;;;;;;5.49;82.46;94058.16;4889990;29;20035;-78
2023/11/14 05:38:50;;;;;;;19.67;6.47;;;;;;;5.52;82.53;94062.91;4890225;29;20068;-78
2023/11/14 05:41:16;;;;;;;10.90;6.65;;;;;;;5.50;82.24;94059.75;4889510;29;20252;-78
2023/11/14 05:43:42;;;;;;;17.98;7.43;;;;;;;5.53;82.32;94056.53;4890113;29;20025;-78
2023/11/14 05:46:08;;;;;;;22.20;5.95;;;;;;;5.56;82.09;94042.78;4890028;29;20029;-78
2023/11/14 05:48:34;;;;;;;12.50;5.50;;;;;;;5.57;82.51;94039.84;4889853;29;20212;-79
2023/11/14 05:50:59;;;;;;;15.45;6.75;;;;;;;5.61;82.22;94048.00;4888703;29;20028;-78
2023/11/14 05:53:24;;;;;;;12.52;6.53;;;;;;;5.65;82.22;94049.03;4888563;29;20052;-79
2023/11/14 05:55:50;;;;;;;17.38;5.85;;;;;;;5.69;82.19;94063.28;4889543;29;20036;-79
2023/11/14 05:58:15;;;;;;;22.25;6.30;;;;;;;5.71;82.08;94047.94;4889610;29;20096;-80
2023/11/14 06:00:41;;;;;;;25.50;6.85;;;;;;;5.77;81.94;94048.69;4889709;29;20032;-78
2023/11/14 06:03:06;;;;;;;23.08;8.70;;;;;;;5.81;81.99;94053.13;4888692;29;20043;-78
2023/11/14 06:05:32;;;;;;;16.30;8.35;;;;;;;5.85;81.87;94057.88;4889578;29;20363;-79
2023/11/14 06:07:57;;;;;;;29.50;8.27;;;;;;;5.89;82.19;94074.78;4889556;29;20024;-78
2023/11/14 06:10:23;;;;;;;19.02;8.20;;;;;;;5.94;81.88;94072.06;4889435;29;20025;-79
2023/11/14 06:12:48;;;;;;;24.13;9.00;;;;;;;5.96;81.94;94065.50;4889453;29;20028;-79
2023/11/14 06:15:14;;;;;;;28.13;9.02;;;;;;;6.02;82.21;94037.91;4889432;29;20051;-79
2023/11/14 06:17:39;;;;;;;28.33;8.45;;;;;;;6.07;82.62;94045.00;4889376;29;20252;-79
2023/11/14 06:20:07;;;;;;;26.83;9.27;;;;;;;6.14;82.61;94034.06;4889237;29;20256;-79
2023/11/14 06:22:32;;;;;;;18.92;8.57;;;;;;;6.19;82.65;94029.53;4889142;29;20040;-79
2023/11/14 06:24:59;;;;;;;22.65;9.40;;;;;;;6.30;82.69;94038.16;4889239;29;20085;-78
2023/11/14 06:27:24;;;;;;;17.35;9.52;;;;;;;6.37;82.74;94035.97;4889322;29;20044;-79
2023/11/14 06:29:50;;;;;;;24.48;9.57;;;;;;;6.50;82.35;94036.34;4888824;29;20029;-75
2023/11/14 06:32:15;;;;;;;25.05;8.32;;;;;;;6.61;82.12;94037.78;4888844;29;20072;-73
2023/11/14 06:34:41;;;;;;;21.13;8.55;;;;;;;6.76;81.63;94039.50;4889061;29;20081;-74
2023/11/14 06:37:06;;;;;;;19.83;8.50;;;;;;;6.87;81.52;94046.22;4889090;29;20319;-73
2023/11/14 06:39:31;;;;;;;27.77;8.85;;;;;;;7.01;81.24;94052.38;4888836;29;20033;-74
2023/11/14 06:41:57;;;;;;;14.90;6.82;;;;;;;7.15;81.09;94046.41;4888623;29;20037;-73
2023/11/14 06:44:22;;;;;;;20.10;6.85;;;;;;;7.29;80.21;94051.78;4888771;29;20033;-73
2023/11/14 06:46:48;;;;;;;32.47;10.05;;;;;;;7.41;79.42;94050.25;4888680;29;20238;-75
2023/11/14 06:49:13;;;;;;;32.50;10.40;;;;;;;7.51;79.29;94048.50;4888275;29;20029;-75
2023/11/14 06:51:39;;;;;;;21.58;9.60;;;;;;;7.60;79.56;94025.56;4887248;29;20025;-75
2023/11/14 06:54:04;;;;;;;25.15;8.35;;;;;;;7.71;78.89;94021.66;4888615;29;20041;-74
2023/11/14 06:56:30;;;;;;;21.38;7.45;;;;;;;7.83;78.99;94010.59;4888394;29;20046;-74
2023/11/14 06:58:55;;;;;;;20.85;7.32;;;;;;;7.94;79.07;94017.31;4888620;29;20032;-75
2023/11/14 07:01:21;;;;;;;13.23;5.50;;;;;;;8.06;77.94;94022.16;4888246;29;20061;-75
2023/11/14 07:03:46;;;;;;;13.98;5.60;;;;;;;8.13;77.38;94019.88;4888651;29;20025;-75
2023/11/14 07:06:12;;;;;;;18.77;5.68;;;;;;;8.26;76.73;94025.50;4888502;29;20021;-75
2023/11/14 07:08:39;;;;;;;14.13;4.53;;;;;;;8.34;76.01;94033.56;4888645;29;20211;-74
2023/11/14 07:11:05;;;;;;;17.98;5.57;;;;;;;8.44;75.10;94037.94;4888683;29;20036;-74
2023/11/14 07:13:31;;;;;;;11.52;5.68;;;;;;;8.54;73.90;94048.38;4888345;29;20333;-74
2023/11/14 07:15:56;;;;;;;23.27;6.65;;;;;;;8.61;73.44;94051.44;4887138;29;20036;-74
2023/11/14 07:18:22;;;;;;;14.05;6.20;;;;;;;8.72;73.38;94057.34;4888654;29;20025;-76
2023/11/14 07:20:48;;;;;;;30.88;7.50;;;;;;;8.75;72.53;94047.97;4888433;29;20330;-76
2023/11/14 07:23:14;;;;;;;24.00;6.53;;;;;;;8.83;72.34;94034.00;4888621;29;20327;-76
2023/11/14 07:25:43;;;;;;;18.45;8.30;;;;;;;8.90;72.10;94036.28;4888595;29;20031;-76
2023/11/14 07:28:11;;;;;;;17.25;6.53;;;;;;;8.92;71.95;94028.78;4889217;29;20024;-82
2023/11/14 07:30:37;;;;;;;15.70;4.82;;;;;;;8.96;71.54;94027.88;4888860;29;20054;-82
2023/11/14 07:33:03;;;;;;;10.77;4.20;;;;;;;9.01;70.48;94037.63;4888920;29;20036;-90
2023/11/14 07:35:28;;;;;;;16.27;4.38;;;;;;;9.05;69.85;94038.59;4889265;29;20033;-82
2023/11/14 07:37:54;;;;;;;11.48;4.18;;;;;;;9.12;69.41;94027.53;4887292;29;20029;-83
2023/11/14 07:40:22;;;;;;;11.30;4.30;;;;;;;9.15;69.21;94035.72;4887262;29;20035;-82
2023/11/14 07:42:48;;;;;;;13.82;4.63;;;;;;;9.22;69.50;94030.00;4887317;29;20097;-83
2023/11/14 07:45:14;;;;;;;17.05;5.43;;;;;;;9.27;69.41;94027.22;4888457;29;20028;-87
2023/11/14 07:47:40;;;;;;;12.90;4.65;;;;;;;9.33;68.88;94026.00;4888806;29;20219;-85
2023/11/14 07:50:06;;;;;;;15.68;5.03;;;;;;;9.42;68.55;94020.75;4887525;29;20025;-89
2023/11/14 07:52:32;;;;;;;17.92;4.93;;;;;;;9.48;68.21;94026.75;4888319;29;20021;-81
2023/11/14 07:55:24;;;;;;;7.78;3.78;;;;;;;9.55;68.31;94022.59;4889165;29;20272;-83
2023/11/14 07:57:49;;;;;;;15.97;5.33;;;;;;;9.61;67.30;94025.94;4887641;29;20049;-82
2023/11/14 08:00:16;;;;;;;13.82;4.30;;;;;;;9.65;67.31;94024.22;4887824;29;20201;-81
2023/11/14 08:02:42;;;;;;;10.75;4.40;;;;;;;9.64;67.09;94043.94;4885765;29;20323;-82
2023/11/14 08:05:09;;;;;;;12.98;4.22;;;;;;;9.68;66.71;94031.59;4888364;29;20046;-81
2023/11/14 08:07:35;;;;;;;19.10;5.28;;;;;;;9.73;66.61;94031.50;4890003;29;20252;-81
2023/11/14 08:10:01;;;;;;;22.65;5.40;;;;;;;9.78;66.84;94030.56;4888713;29;20056;-81
2023/11/14 08:12:27;;;;;;;13.25;6.15;;;;;;;9.80;66.55;94031.84;4888708;29;20036;-81
2023/11/14 08:14:52;;;;;;;18.40;6.22;;;;;;;9.83;66.85;94015.28;4888704;29;20088;-81
2023/11/14 08:17:18;;;;;;;23.08;7.97;;;;;;;9.86;66.91;94021.06;4889757;29;20033;-81
2023/11/14 08:19:45;;;;;;;25.58;7.72;;;;;;;9.92;66.92;94015.31;4891133;29;20025;-81
2023/11/14 08:22:11;;;;;;;24.80;7.95;;;;;;;9.95;66.50;94000.59;4891225;29;20032;-81
2023/11/14 08:24:37;;;;;;;30.42;7.97;;;;;;;10.03;66.84;94006.00;4891376;29;20376;-81
2023/11/14 08:27:05;;;;;;;18.50;6.15;;;;;;;10.12;66.48;93998.03;4890205;29;20029;-81
2023/11/14 08:29:32;;;;;;;11.73;5.72;;;;;;;10.19;65.05;93987.72;4891571;29;20025;-81
2023/11/14 08:31:58;;;;;;;20.45;7.30;;;;;;;10.27;64.76;93988.06;4891293;29;20368;-82
2023/11/14 08:34:23;;;;;;;10.35;4.30;;;;;;;10.31;64.60;93989.06;4891374;29;20051;-81
2023/11/14 08:36:49;;;;;;;15.10;5.70;;;;;;;10.37;63.72;93987.81;4891234;29;20025;-82
2023/11/14 08:39:14;;;;;;;13.55;4.78;;;;;;;10.44;63.48;93993.47;4891142;29;20032;-81
2023/11/14 08:41:43;;;;;;;13.18;4.78;;;;;;;10.54;63.57;93990.56;4891037;29;20025;-81
2023/11/14 08:44:08;;;;;;;13.90;5.15;;;;;;;10.60;63.50;94004.50;4891198;29;20029;-81
2023/11/14 08:46:34;;;;;;;16.42;5.15;;;;;;;10.64;63.23;93984.94;4889803;29;20021;-81
2023/11/14 08:49:00;;;;;;;14.15;5.85;;;;;;;10.72;62.48;93995.91;4891099;29;20024;-81
2023/11/14 08:51:26;;;;;;;12.77;5.40;;;;;;;10.76;62.38;93994.22;4889845;29;20072;-82
2023/11/14 08:53:51;;;;;;;15.52;5.10;;;;;;;10.81;62.02;93996.75;4890906;29;20049;-82
2023/11/14 08:56:17;;;;;;;14.15;5.68;;;;;;;10.82;62.19;93999.06;4890654;29;20132;-82
2023/11/14 08:58:42;;;;;;;24.90;6.47;;;;;;;10.87;62.45;94000.03;4890805;29;20024;-81
2023/11/14 09:01:10;;;;;;;20.35;5.68;;;;;;;10.90;61.73;94010.09;4891090;29;20072;-81
2023/11/14 09:03:35;;;;;;;16.38;4.82;;;;;;;10.98;62.12;94004.75;4889936;29;20036;-81
2023/11/14 09:06:01;;;;;;;14.57;5.82;;;;;;;11.08;62.19;94008.25;4889537;29;20323;-81
2023/11/14 09:08:26;;;;;;;21.33;9.55;;;;;;;11.17;61.66;94006.34;4889527;29;20106;-82
2023/11/14 09:10:52;;;;;;;16.77;5.13;;;;;;;11.20;61.23;94008.41;4890645;29;20097;-82
2023/11/14 09:13:17;;;;;;;19.23;5.72;;;;;;;11.27;61.18;94008.72;4889462;29;20025;-82
2023/11/14 09:15:43;;;;;;;12.73;4.50;;;;;;;11.36;61.17;94011.41;4889633;29;20049;-82
2023/11/14 09:18:08;;;;;;;11.55;4.15;;;;;;;11.44;61.16;94019.41;4890299;29;20028;-82
2023/11/14 09:20:34;;;;;;;9.68;4.32;;;;;;;11.46;60.67;94008.41;4890597;29;20048;-81
2023/11/14 09:23:00;;;;;;;12.85;4.03;;;;;;;11.53;60.17;94005.28;4889141;29;20053;-81
2023/11/14 09:25:26;;;;;;;16.05;4.75;;;;;;;11.62;59.58;94004.16;4890187;29;20046;-82
2023/11/14 09:27:53;;;;;;;13.23;5.00;;;;;;;11.71;59.80;93992.69;4890300;29;20021;-82
2023/11/14 09:30:18;;;;;;;26.10;5.13;;;;;;;11.81;58.56;94001.16;4890256;29;20021;-82
2023/11/14 09:32:44;;;;;;;15.68;4.53;;;;;;;11.86;58.48;93992.19;4890086;29;20021;-82
2023/11/14 09:35:12;;;;;;;14.27;4.55;;;;;;;11.92;58.86;93995.50;4889972;29;20025;-81
2023/11/14 09:37:39;;;;;;;12.40;5.00;;;;;;;12.03;58.77;94002.88;4890092;29;20027;-82
2023/11/14 09:40:06;;;;;;;12.90;4.68;;;;;;;12.10;58.53;94001.59;4890240;29;20036;-82
2023/11/14 09:42:32;;;;;;;13.82;5.07;;;;;;;12.16;58.54;94001.09;4889902;29;20215;-82
2023/11/14 09:44:58;;;;;;;17.00;4.90;;;;;;;12.27;58.16;93998.09;4889954;29;20028;-82
2023/11/14 09:47:25;;;;;;;13.70;5.57;;;;;;;12.33;57.74;94004.81;4889877;29;20020;-81
2023/11/14 09:49:50;;;;;;;15.65;5.82;;;;;;;12.35;56.90;93986.56;4889873;29;20024;-82
2023/11/14 09:52:16;;;;;;;25.58;6.88;;;;;;;12.31;56.21;93991.78;4890041;29;20208;-82
2023/11/14 09:54:44;;;;;;;26.58;5.93;;;;;;;12.39;56.62;93977.59;4889545;29;20065;-82
2023/11/14 09:57:11;;;;;;;14.45;5.18;;;;;;;12.49;56.44;93964.97;4889844;29;20024;-82
2023/11/14 09:59:42;;;;;;;9.20;4.07;;;;;;;12.58;56.39;93963.84;4889763;29;20323;-82
2023/11/14 10:02:07;;;;;;;13.15;5.00;;;;;;;12.69;55.90;93958.13;4890128;29;20025;-82
2023/11/14 10:04:33;;;;;;;17.10;5.55;;;;;;;12.80;55.90;93959.28;4889876;29;20037;-82
2023/11/14 10:06:59;;;;;;;15.20;5.40;;;;;;;12.92;56.03;93962.06;4889577;29;20044;-82
2023/11/14 10:09:25;;;;;;;21.73;6.22;;;;;;;13.04;55.31;93946.06;4888529;29;20025;-82
2023/11/14 10:11:52;;;;;;;25.20;6.30;;;;;;;13.16;54.44;93944.59;4889596;29;20024;-82
2023/11/14 10:14:19;;;;;;;21.65;7.18;;;;;;;13.23;54.14;93939.50;4889454;29;20045;-80
2023/11/14 10:16:55;;;;;;;23.77;8.63;;;;;;;13.35;53.86;93936.09;4889363;29;20029;-81
2023/11/14 10:19:21;;;;;;;19.77;5.55;;;;;;;13.50;52.72;93937.41;4889517;29;20036;-82
2023/11/14 10:21:47;;;;;;;16.08;4.35;;;;;;;13.56;53.08;93930.75;4889380;29;20033;-82
2023/11/14 10:24:16;;;;;;;16.85;5.32;;;;;;;13.64;52.45;93927.19;4889457;29;20028;-82
2023/11/14 10:26:53;;;;;;;26.65;6.45;;;;;;;13.72;52.29;93920.97;4888266;29;20024;-82
2023/11/14 10:29:21;;;;;;;24.40;6.53;;;;;;;13.79;51.80;93913.16;4889253;29;20031;-82
2023/11/14 10:31:47;;;;;;;16.02;5.28;;;;;;;13.87;52.29;93908.06;4889183;29;20031;-82
2023/11/14 10:34:28;;;;;;;16.52;5.18;;;;;;;13.96;52.23;93898.81;4888029;29;20024;-81
2023/11/14 10:36:55;;;;;;;17.60;5.85;;;;;;;14.04;52.15;93897.94;4889138;29;20093;-82
2023/11/14 10:39:22;;;;;;;15.65;4.35;;;;;;;14.11;51.83;93877.84;4889179;29;20093;-82
2023/11/14 10:41:49;;;;;;;16.77;4.10;;;;;;;14.16;51.40;93891.00;4888924;29;20032;-82
2023/11/14 10:44:15;;;;;;;15.63;4.00;;;;;;;14.18;51.10;93881.50;4889038;29;20031;-81
2023/11/14 10:47:07;;;;;;;11.10;4.55;;;;;;;14.23;52.09;93881.28;4887998;29;20028;-81
2023/11/14 10:49:45;;;;;;;14.85;3.67;;;;;;;14.32;52.00;93864.31;4886501;29;20453;-82
2023/11/14 10:52:11;;;;;;;8.43;4.07;;;;;;;14.39;51.41;93864.50;4889047;29;20033;-82
2023/11/14 10:54:37;;;;;;;7.78;3.60;;;;;;;14.45;51.93;93857.84;4888089;29;20061;-82
2023/11/14 10:57:04;;;;;;;10.57;3.70;;;;;;;14.50;50.72;93849.53;4888111;29;20100;-82
2023/11/14 10:59:31;;;;;;;17.45;3.22;;;;;;;14.54;50.77;93855.78;4888067;29;20287;-82
2023/11/14 11:01:58;;;;;;;9.30;3.15;;;;;;;14.63;51.15;93843.09;4888209;29;20037;-82
2023/11/14 11:04:23;;;;;;;7.63;2.63;;;;;;;14.72;50.61;93842.16;4888201;29;20029;-81
2023/11/14 11:06:48;;;;;;;11.02;2.50;;;;;;;14.76;49.35;93829.63;4888052;29;20084;-82
2023/11/14 11:09:18;;;;;;;11.07;3.67;;;;;;;14.81;48.82;93815.97;4886640;29;20029;-81
2023/11/14 11:11:49;;;;;;;10.75;3.53;;;;;;;14.87;48.78;93803.88;4886800;29;20059;-81
2023/11/14 11:14:16;;;;;;;11.27;3.40;;;;;;;14.90;48.35;93811.25;4887790;29;20358;-82
2023/11/14 11:16:46;;;;;;;10.50;3.17;;;;;;;14.94;48.80;93806.78;4887790;29;20025;-82
2023/11/14 11:19:21;;;;;;;8.40;3.10;;;;;;;15.02;48.74;93805.84;4887792;29;20032;-81
2023/11/14 11:22:00;;;;;;;11.82;3.20;;;;;;;15.11;48.29;93802.22;4887756;29;20081;-82
2023/11/14 11:24:28;;;;;;;7.80;2.83;;;;;;;15.16;47.54;93804.66;4887641;29;20040;-82
2023/11/14 11:27:05;;;;;;;6.95;3.05;;;;;;;15.19;47.67;93812.03;4887913;29;20093;-82